createdAt,value
2023-09-09T00:01:52.380Z,65.16
2023-09-09T00:04:19.015Z,64.73
2023-09-09T00:06:45.647Z,64.30
2023-09-09T00:09:12.220Z,64.53
2023-09-09T00:11:38.720Z,64.85
2023-09-09T00:14:05.471Z,64.55
2023-09-09T00:16:35.062Z,64.64
2023-09-09T00:19:02.127Z,64.97
2023-09-09T00:21:28.645Z,65.06
2023-09-09T00:23:55.300Z,65.06
2023-09-09T00:26:21.864Z,65.77
2023-09-09T00:28:48.509Z,65.66
2023-09-09T00:31:15.024Z,65.53
2023-09-09T00:33:42.201Z,65.64
2023-09-09T00:36:08.726Z,65.69
2023-09-09T00:38:35.413Z,65.64
2023-09-09T00:41:22.020Z,64.99
2023-09-09T00:43:50.368Z,65.54
2023-09-09T00:46:18.045Z,66.13
2023-09-09T00:48:45.294Z,66.56
2023-09-09T00:51:13.037Z,66.78
2023-09-09T00:53:41.032Z,66.55
2023-09-09T00:56:07.763Z,67.09
2023-09-09T00:58:34.571Z,66.85
2023-09-09T01:01:01.974Z,67.08
2023-09-09T01:03:28.705Z,67.53
2023-09-09T01:05:55.564Z,67.54
2023-09-09T01:08:26.367Z,67.64
2023-09-09T01:10:53.642Z,67.57
2023-09-09T01:13:20.487Z,67.96
2023-09-09T01:15:47.851Z,68.07
2023-09-09T01:18:14.656Z,68.03
2023-09-09T01:20:46.049Z,68.18
2023-09-09T01:23:12.624Z,68.42
2023-09-09T01:25:39.221Z,68.02
2023-09-09T01:28:06.364Z,68.69
2023-09-09T01:30:32.916Z,68.75
2023-09-09T01:32:59.501Z,68.63
2023-09-09T01:35:26.281Z,69.32
2023-09-09T01:37:52.854Z,69.77
2023-09-09T01:40:19.478Z,69.97
2023-09-09T01:42:46.112Z,70.34
2023-09-09T01:45:12.679Z,70.43
2023-09-09T01:47:39.564Z,70.58
2023-09-09T01:50:06.744Z,70.62
2023-09-09T01:52:33.305Z,70.70
2023-09-09T01:54:59.796Z,70.96
2023-09-09T01:57:26.345Z,71.05
2023-09-09T01:59:52.905Z,71.51
2023-09-09T02:02:19.491Z,71.63
2023-09-09T02:04:46.088Z,70.54
2023-09-09T02:07:12.707Z,70.97
2023-09-09T02:09:39.337Z,70.79
2023-09-09T02:12:06.444Z,71.31
2023-09-09T02:14:34.557Z,71.51
2023-09-09T02:17:01.165Z,71.67
2023-09-09T02:19:27.668Z,71.70
2023-09-09T02:21:54.262Z,71.86
2023-09-09T02:24:20.820Z,71.86
2023-09-09T02:26:47.391Z,72.12
2023-09-09T02:29:13.918Z,72.34
2023-09-09T02:31:40.538Z,72.28
2023-09-09T02:34:07.195Z,72.47
2023-09-09T02:36:33.800Z,71.95
2023-09-09T02:39:00.375Z,72.24
2023-09-09T02:41:27.082Z,72.08
2023-09-09T02:43:53.585Z,72.10
2023-09-09T02:46:21.846Z,71.89
2023-09-09T02:48:49.437Z,71.43
2023-09-09T02:51:15.972Z,71.72
2023-09-09T02:53:42.505Z,72.02
2023-09-09T02:56:09.033Z,72.36
2023-09-09T02:58:35.590Z,72.32
2023-09-09T03:01:06.288Z,71.81
2023-09-09T03:03:35.199Z,71.88
2023-09-09T03:06:02.001Z,72.37
2023-09-09T03:08:29.095Z,71.93
2023-09-09T03:10:55.630Z,72.12
2023-09-09T03:13:22.237Z,71.86
2023-09-09T03:15:48.745Z,71.61
2023-09-09T03:18:15.516Z,71.07
2023-09-09T03:20:42.157Z,70.98
2023-09-09T03:23:08.974Z,71.05
2023-09-09T03:25:35.519Z,71.28
2023-09-09T03:28:02.152Z,71.88
2023-09-09T03:30:28.917Z,71.64
2023-09-09T03:32:55.592Z,71.36
2023-09-09T03:35:22.117Z,70.78
2023-09-09T03:37:48.714Z,71.24
2023-09-09T03:40:15.534Z,71.00
2023-09-09T03:42:42.287Z,71.56
2023-09-09T03:45:09.202Z,71.76
2023-09-09T03:47:35.805Z,71.60
2023-09-09T03:50:02.349Z,71.72
2023-09-09T03:52:29.450Z,71.75
2023-09-09T03:54:56.015Z,71.76
2023-09-09T03:57:22.676Z,71.99
2023-09-09T03:59:49.688Z,71.91
2023-09-09T04:02:36.316Z,71.96
2023-09-09T04:05:04.067Z,72.14
2023-09-09T04:07:30.779Z,71.86
2023-09-09T04:09:57.485Z,72.76
2023-09-09T04:12:24.119Z,72.16
2023-09-09T04:14:50.712Z,72.21
2023-09-09T04:17:17.240Z,72.43
2023-09-09T04:19:43.878Z,72.40
2023-09-09T04:22:10.445Z,72.45
2023-09-09T04:24:37.080Z,72.50
2023-09-09T04:27:03.879Z,73.01
2023-09-09T04:29:30.681Z,72.81
2023-09-09T04:31:57.346Z,72.86
2023-09-09T04:34:23.934Z,72.88
2023-09-09T04:36:50.506Z,73.57
2023-09-09T04:39:18.181Z,72.80
2023-09-09T04:41:46.432Z,72.65
2023-09-09T04:44:14.579Z,72.74
2023-09-09T04:46:41.169Z,73.38
2023-09-09T04:49:07.801Z,73.05
2023-09-09T04:51:35.261Z,73.15
2023-09-09T04:54:02.648Z,73.52
2023-09-09T04:56:29.225Z,73.32
2023-09-09T04:58:55.814Z,73.05
2023-09-09T05:01:22.709Z,73.14
2023-09-09T05:03:49.339Z,72.77
2023-09-09T05:06:15.893Z,73.40
2023-09-09T05:08:42.492Z,73.28
2023-09-09T05:11:09.078Z,73.64
2023-09-09T05:13:35.921Z,74.07
2023-09-09T05:16:04.279Z,73.73
2023-09-09T05:18:31.272Z,73.97
2023-09-09T05:20:57.773Z,73.95
2023-09-09T05:23:24.378Z,74.40
2023-09-09T05:25:51.437Z,74.54
2023-09-09T05:28:18.008Z,74.60
2023-09-09T05:30:44.735Z,74.81
2023-09-09T05:33:11.994Z,74.88
2023-09-09T05:35:38.647Z,74.87
2023-09-09T05:38:05.243Z,75.33
2023-09-09T05:40:31.805Z,75.25
2023-09-09T05:42:58.492Z,75.73
2023-09-09T05:45:25.033Z,75.67
2023-09-09T05:47:51.844Z,75.65
2023-09-09T05:50:18.350Z,75.71
2023-09-09T05:52:45.262Z,76.38
2023-09-09T05:55:12.567Z,76.42
2023-09-09T05:57:39.080Z,76.41
2023-09-09T06:00:06.637Z,76.97
2023-09-09T06:02:46.362Z,76.47
2023-09-09T06:05:12.971Z,76.51
2023-09-09T06:07:42.051Z,76.62
2023-09-09T06:10:09.751Z,76.60
2023-09-09T06:12:36.696Z,76.91
2023-09-09T06:15:03.562Z,76.21
2023-09-09T06:17:30.219Z,76.30
2023-09-09T06:19:56.810Z,75.83
2023-09-09T06:22:23.385Z,76.24
2023-09-09T06:24:50.029Z,76.16
2023-09-09T06:27:16.676Z,76.21
2023-09-09T06:29:43.356Z,76.67
2023-09-09T06:32:10.127Z,76.78
2023-09-09T06:34:37.183Z,76.56
2023-09-09T06:37:03.866Z,76.76
2023-09-09T06:39:30.433Z,76.69
2023-09-09T06:41:58.238Z,76.48
2023-09-09T06:44:30.405Z,76.15
2023-09-09T06:46:56.904Z,76.13
2023-09-09T06:49:23.436Z,76.37
2023-09-09T06:51:50.176Z,75.84
2023-09-09T06:54:16.716Z,75.69
2023-09-09T06:56:43.239Z,76.26
2023-09-09T06:59:09.734Z,75.69
2023-09-09T07:01:36.335Z,75.89
2023-09-09T07:04:02.986Z,75.78
2023-09-09T07:06:29.741Z,75.66
2023-09-09T07:08:56.226Z,75.28
2023-09-09T07:11:41.684Z,75.10
2023-09-09T07:14:08.203Z,74.98
2023-09-09T07:16:34.736Z,74.54
2023-09-09T07:19:01.469Z,74.76
2023-09-09T07:21:27.935Z,74.48
2023-09-09T07:23:54.418Z,73.94
2023-09-09T07:26:20.977Z,74.09
2023-09-09T07:28:47.487Z,73.83
2023-09-09T07:31:14.084Z,73.54
2023-09-09T07:33:40.943Z,73.22
2023-09-09T07:36:07.470Z,73.11
2023-09-09T07:38:33.980Z,72.89
2023-09-09T07:41:00.560Z,72.31
2023-09-09T07:43:27.135Z,72.27
2023-09-09T07:45:53.713Z,72.62
2023-09-09T07:48:20.277Z,72.17
2023-09-09T07:50:54.666Z,72.04
2023-09-09T07:53:22.072Z,70.82
2023-09-09T07:55:49.295Z,71.24
2023-09-09T07:58:16.735Z,70.76
2023-09-09T08:00:44.909Z,70.33
2023-09-09T08:03:12.420Z,70.61
2023-09-09T08:05:39.561Z,69.75
2023-09-09T08:08:09.150Z,69.63
2023-09-09T08:10:35.655Z,70.20
2023-09-09T08:13:02.576Z,69.33
2023-09-09T08:15:41.689Z,68.98
2023-09-09T08:18:08.647Z,68.98
2023-09-09T08:20:35.210Z,69.25
2023-09-09T08:23:01.742Z,68.78
2023-09-09T08:25:28.237Z,68.17
2023-09-09T08:27:54.962Z,67.29
2023-09-09T08:30:21.478Z,67.42
2023-09-09T08:32:48.026Z,67.15
2023-09-09T08:35:14.644Z,66.08
2023-09-09T08:37:41.208Z,66.00
2023-09-09T08:40:08.446Z,65.90
2023-09-09T08:42:49.123Z,65.78
2023-09-09T08:45:18.437Z,65.65
2023-09-09T08:47:46.332Z,64.62
2023-09-09T08:50:16.847Z,65.12
2023-09-09T08:52:44.842Z,64.32
2023-09-09T08:55:11.813Z,64.86
2023-09-09T08:57:38.650Z,64.61
2023-09-09T09:00:06.469Z,63.97
2023-09-09T09:02:35.004Z,63.91
2023-09-09T09:05:04.459Z,62.95
2023-09-09T09:07:32.318Z,62.39
2023-09-09T09:09:58.871Z,62.10
2023-09-09T09:12:28.827Z,62.76
2023-09-09T09:14:55.370Z,62.33
2023-09-09T09:17:22.984Z,62.17
2023-09-09T09:19:49.608Z,59.86
2023-09-09T09:22:17.546Z,59.28
2023-09-09T09:24:45.867Z,58.19
2023-09-09T09:27:16.458Z,56.36
2023-09-09T09:29:45.677Z,56.05
2023-09-09T09:32:12.757Z,53.29
2023-09-09T09:34:40.050Z,51.68
2023-09-09T09:37:14.301Z,49.99
2023-09-09T09:39:41.147Z,48.28
2023-09-09T09:42:11.499Z,48.62
2023-09-09T09:44:37.945Z,47.70
2023-09-09T09:47:09.287Z,47.43
2023-09-09T09:49:43.429Z,44.93
2023-09-09T09:52:10.195Z,43.45
2023-09-09T09:54:37.885Z,42.97
2023-09-09T09:57:06.207Z,42.19
2023-09-09T09:59:34.770Z,41.39
2023-09-09T10:02:01.787Z,40.79
2023-09-09T10:04:28.994Z,40.06
2023-09-09T10:06:57.080Z,38.98
2023-09-09T10:09:31.559Z,38.09
2023-09-09T10:12:06.422Z,38.09
2023-09-09T10:14:36.138Z,36.92
2023-09-09T10:17:06.341Z,36.84
2023-09-09T10:19:35.199Z,36.58
2023-09-09T10:22:02.313Z,34.68
2023-09-09T10:24:30.219Z,34.80
2023-09-09T10:26:57.890Z,33.37
2023-09-09T10:29:25.334Z,33.03
2023-09-09T10:31:53.541Z,32.97
2023-09-09T10:34:21.714Z,32.28
2023-09-09T10:39:26.574Z,31.94
2023-09-09T10:41:55.265Z,31.65
2023-09-09T10:44:21.942Z,31.07
2023-09-09T10:46:54.411Z,31.15
2023-09-09T10:49:25.331Z,30.84
2023-09-09T10:51:52.516Z,29.63
2023-09-09T10:54:20.569Z,29.10
2023-09-09T10:56:48.836Z,29.59
2023-09-09T10:59:24.287Z,29.30
2023-09-09T11:02:11.801Z,28.67
2023-09-09T11:04:40.738Z,29.55
2023-09-09T11:07:12.317Z,29.65
2023-09-09T11:09:39.035Z,29.84
2023-09-09T11:12:13.176Z,29.82
2023-09-09T11:14:44.342Z,30.51
2023-09-09T11:17:11.608Z,30.94
2023-09-09T11:19:39.272Z,30.68
2023-09-09T11:22:07.754Z,31.60
2023-09-09T11:24:37.323Z,31.93
2023-09-09T11:27:06.968Z,31.82
2023-09-09T11:29:37.598Z,32.53
2023-09-09T11:32:09.341Z,33.20
2023-09-09T11:34:36.001Z,32.76
2023-09-09T11:37:04.068Z,33.43
2023-09-09T11:39:39.047Z,33.39
2023-09-09T11:42:05.666Z,33.71
2023-09-09T11:44:40.855Z,34.21
2023-09-09T11:47:08.378Z,34.21
2023-09-09T11:49:36.066Z,34.72
2023-09-09T11:52:02.764Z,35.07
2023-09-09T11:54:30.859Z,34.90
2023-09-09T11:57:05.804Z,35.72
2023-09-09T11:59:32.415Z,35.90
2023-09-09T12:02:00.891Z,36.54
2023-09-09T12:04:27.633Z,36.28
2023-09-09T12:06:55.521Z,35.94
2023-09-09T12:09:22.748Z,36.46
2023-09-09T12:11:49.969Z,36.80
2023-09-09T12:14:17.191Z,37.09
2023-09-09T12:16:44.924Z,36.87
2023-09-09T12:19:14.899Z,36.82
2023-09-09T12:21:48.135Z,36.43
2023-09-09T12:24:14.800Z,35.63
2023-09-09T12:26:54.274Z,36.22
2023-09-09T12:29:21.418Z,35.65
2023-09-09T12:31:53.759Z,35.75
2023-09-09T12:34:21.344Z,36.09
2023-09-09T12:36:49.215Z,36.17
2023-09-09T12:39:36.043Z,37.07
2023-09-09T12:42:06.665Z,37.18
2023-09-09T12:44:34.292Z,37.18
2023-09-09T12:47:05.010Z,37.61
2023-09-09T12:49:32.965Z,37.90
2023-09-09T12:51:59.486Z,38.25
2023-09-09T12:54:26.083Z,37.80
2023-09-09T12:56:52.659Z,36.67
2023-09-09T12:59:19.216Z,37.08
2023-09-09T13:01:45.779Z,37.07
2023-09-09T13:04:12.478Z,37.53
2023-09-09T13:06:38.996Z,37.93
2023-09-09T13:09:05.572Z,38.24
2023-09-09T13:11:32.240Z,38.24
2023-09-09T13:14:07.419Z,38.82
2023-09-09T13:16:45.548Z,38.16
2023-09-09T13:19:12.137Z,38.75
2023-09-09T13:21:38.718Z,37.83
2023-09-09T13:24:05.711Z,38.26
2023-09-09T13:26:32.269Z,37.65
2023-09-09T13:28:58.772Z,36.46
2023-09-09T13:31:25.307Z,37.67
2023-09-09T13:33:51.856Z,38.21
2023-09-09T13:36:18.387Z,37.40
2023-09-09T13:38:44.989Z,37.47
2023-09-09T13:41:11.550Z,36.74
2023-09-09T13:43:38.355Z,37.18
2023-09-09T13:46:05.125Z,36.52
2023-09-09T13:48:31.634Z,36.77
2023-09-09T13:50:58.155Z,35.70
2023-09-09T13:53:24.776Z,35.65
2023-09-09T13:55:51.312Z,35.69
2023-09-09T13:58:17.785Z,34.83
2023-09-09T14:00:44.417Z,34.32
2023-09-09T14:03:11.137Z,34.92
2023-09-09T14:05:37.823Z,33.77
2023-09-09T14:08:04.650Z,34.22
2023-09-09T14:10:34.458Z,33.83
2023-09-09T14:13:01.122Z,34.22
2023-09-09T14:15:27.707Z,34.76
2023-09-09T14:17:54.350Z,33.95
2023-09-09T14:20:21.013Z,34.04
2023-09-09T14:22:47.541Z,33.58
2023-09-09T14:25:14.135Z,33.87
2023-09-09T14:27:41.468Z,34.10
2023-09-09T14:30:08.598Z,33.17
2023-09-09T14:32:35.160Z,32.86
2023-09-09T14:35:01.706Z,32.62
2023-09-09T14:37:28.247Z,32.25
2023-09-09T14:39:54.737Z,31.88
2023-09-09T14:42:21.302Z,31.80
2023-09-09T14:44:48.798Z,31.91
2023-09-09T14:47:15.603Z,32.41
2023-09-09T14:49:42.498Z,31.40
2023-09-09T14:52:09.354Z,31.12
2023-09-09T14:54:36.376Z,30.66
2023-09-09T14:57:03.229Z,30.09
2023-09-09T14:59:30.963Z,29.69
2023-09-09T15:01:57.546Z,29.44
2023-09-09T15:04:24.172Z,29.32
2023-09-09T15:06:50.831Z,29.38
2023-09-09T15:09:17.331Z,30.33
2023-09-09T15:11:43.997Z,29.57
2023-09-09T15:14:13.697Z,29.99
2023-09-09T15:16:46.741Z,30.44
2023-09-09T15:19:14.038Z,30.37
2023-09-09T15:21:40.819Z,30.05
2023-09-09T15:24:07.740Z,30.09
2023-09-09T15:26:34.363Z,30.68
2023-09-09T15:29:01.191Z,30.33
2023-09-09T15:31:27.782Z,30.67
2023-09-09T15:33:54.431Z,31.24
2023-09-09T15:36:21.192Z,31.16
2023-09-09T15:38:47.882Z,31.35
2023-09-09T15:41:14.378Z,30.44
2023-09-09T15:43:45.885Z,30.69
2023-09-09T15:46:12.580Z,30.80
2023-09-09T15:48:39.335Z,30.32
2023-09-09T15:51:06.787Z,30.30
2023-09-09T15:53:33.852Z,31.00
2023-09-09T15:56:00.404Z,30.63
2023-09-09T15:58:26.946Z,30.56
2023-09-09T16:00:53.576Z,30.97
2023-09-09T16:03:20.123Z,31.57
2023-09-09T16:05:46.731Z,30.40
2023-09-09T16:08:13.270Z,30.75
2023-09-09T16:10:39.849Z,31.07
2023-09-09T16:13:06.492Z,30.54
2023-09-09T16:15:33.291Z,30.98
2023-09-09T16:17:59.876Z,30.69
2023-09-09T16:20:26.584Z,31.63
2023-09-09T16:22:53.594Z,32.18
2023-09-09T16:25:20.294Z,31.42
2023-09-09T16:27:46.825Z,31.21
2023-09-09T16:30:13.519Z,30.88
2023-09-09T16:32:40.131Z,31.97
2023-09-09T16:35:07.572Z,32.56
2023-09-09T16:37:34.456Z,30.97
2023-09-09T16:40:01.075Z,31.89
2023-09-09T16:42:27.633Z,31.97
2023-09-09T16:44:54.177Z,30.75
2023-09-09T16:47:20.668Z,30.28
2023-09-09T16:49:47.314Z,29.77
2023-09-09T16:52:13.862Z,29.85
2023-09-09T16:54:40.483Z,29.82
2023-09-09T16:57:07.042Z,30.03
2023-09-09T16:59:40.770Z,32.12
2023-09-09T17:02:10.092Z,31.50
2023-09-09T17:04:36.840Z,33.07
2023-09-09T17:07:03.842Z,32.22
2023-09-09T17:09:33.331Z,31.78
2023-09-09T17:11:59.911Z,32.55
2023-09-09T17:14:26.473Z,34.12
2023-09-09T17:16:52.987Z,33.96
2023-09-09T17:19:19.590Z,34.20
2023-09-09T17:21:46.181Z,33.43
2023-09-09T17:24:12.700Z,33.62
2023-09-09T17:26:39.268Z,33.00
2023-09-09T17:29:05.799Z,32.95
2023-09-09T17:31:32.547Z,33.10
2023-09-09T17:33:59.118Z,34.57
2023-09-09T17:36:25.906Z,34.19
2023-09-09T17:39:07.119Z,34.09
2023-09-09T17:41:33.857Z,34.45
2023-09-09T17:44:01.009Z,35.28
2023-09-09T17:46:27.636Z,35.16
2023-09-09T17:48:55.917Z,35.75
2023-09-09T17:51:22.873Z,35.60
2023-09-09T17:53:49.387Z,35.83
2023-09-09T17:56:15.946Z,35.93
2023-09-09T17:58:42.559Z,36.51
2023-09-09T18:01:09.144Z,36.38
2023-09-09T18:03:35.808Z,36.52
2023-09-09T18:06:03.995Z,37.29
2023-09-09T18:08:30.651Z,36.94
2023-09-09T18:10:57.274Z,37.27
2023-09-09T18:13:23.909Z,37.47
2023-09-09T18:15:51.212Z,37.26
2023-09-09T18:18:17.772Z,37.82
2023-09-09T18:20:44.454Z,38.45
2023-09-09T18:23:10.972Z,38.20
2023-09-09T18:25:37.759Z,38.15
2023-09-09T18:28:04.730Z,38.72
2023-09-09T18:30:31.288Z,38.93
2023-09-09T18:32:57.835Z,38.60
2023-09-09T18:35:24.488Z,38.91
2023-09-09T18:37:51.056Z,38.94
2023-09-09T18:40:17.846Z,39.45
2023-09-09T18:42:44.419Z,39.31
2023-09-09T18:45:10.976Z,39.54
2023-09-09T18:47:37.567Z,39.47
2023-09-09T18:50:04.364Z,39.59
2023-09-09T18:52:30.893Z,39.34
2023-09-09T18:54:57.438Z,39.18
2023-09-09T18:57:23.975Z,39.39
2023-09-09T18:59:50.538Z,40.09
2023-09-09T19:02:17.125Z,39.86
2023-09-09T19:04:43.994Z,40.07
2023-09-09T19:07:11.221Z,40.28
2023-09-09T19:09:44.596Z,40.16
2023-09-09T19:12:11.147Z,40.39
2023-09-09T19:14:37.667Z,40.36
2023-09-09T19:17:04.391Z,40.41
2023-09-09T19:19:30.903Z,40.50
2023-09-09T19:21:57.426Z,40.93
2023-09-09T19:24:23.929Z,40.77
2023-09-09T19:26:50.456Z,40.46
2023-09-09T19:29:16.953Z,40.91
2023-09-09T19:31:43.507Z,40.98
2023-09-09T19:34:10.041Z,41.16
2023-09-09T19:36:36.585Z,41.75
2023-09-09T19:39:03.580Z,41.26
2023-09-09T19:41:30.212Z,41.12
2023-09-09T19:43:57.034Z,41.04
2023-09-09T19:46:23.764Z,41.50
2023-09-09T19:48:50.409Z,41.90
2023-09-09T19:51:16.901Z,42.02
2023-09-09T19:53:43.442Z,42.03
2023-09-09T19:56:09.950Z,41.97
2023-09-09T19:58:36.784Z,41.49
2023-09-09T20:01:04.440Z,41.95
2023-09-09T20:03:31.024Z,42.33
2023-09-09T20:05:57.695Z,42.05
2023-09-09T20:08:24.222Z,42.54
2023-09-09T20:10:50.758Z,42.17
2023-09-09T20:13:17.288Z,42.31
2023-09-09T20:15:43.843Z,41.79
2023-09-09T20:18:10.440Z,42.20
2023-09-09T20:20:39.769Z,42.50
2023-09-09T20:23:06.411Z,42.60
2023-09-09T20:25:33.010Z,42.52
2023-09-09T20:27:59.562Z,42.74
2023-09-09T20:30:26.088Z,44.65
2023-09-09T20:32:52.705Z,45.12
2023-09-09T20:35:33.604Z,45.88
2023-09-09T20:38:02.193Z,45.16
2023-09-09T20:40:28.778Z,46.37
2023-09-09T20:42:58.390Z,46.59
2023-09-09T20:45:26.575Z,46.33
2023-09-09T20:47:54.528Z,45.63
2023-09-09T20:50:23.839Z,45.97
2023-09-09T20:52:51.837Z,45.92
2023-09-09T20:55:19.518Z,46.30
2023-09-09T20:57:46.043Z,46.26
2023-09-09T21:00:13.228Z,46.74
2023-09-09T21:02:45.127Z,45.57
2023-09-09T21:05:11.842Z,45.63
2023-09-09T21:07:38.670Z,46.03
2023-09-09T21:10:06.070Z,46.82
2023-09-09T21:12:32.592Z,45.87
2023-09-09T21:14:59.151Z,46.23
2023-09-09T21:17:25.787Z,46.63
2023-09-09T21:19:52.546Z,46.34
2023-09-09T21:22:19.249Z,46.21
2023-09-09T21:24:45.742Z,47.89
2023-09-09T21:27:12.233Z,49.01
2023-09-09T21:29:38.904Z,49.10
2023-09-09T21:32:06.051Z,49.01
2023-09-09T21:34:32.663Z,48.81
2023-09-09T21:36:59.157Z,49.42
2023-09-09T21:39:27.278Z,49.99
2023-09-09T21:41:53.777Z,50.20
2023-09-09T21:44:20.283Z,49.80
2023-09-09T21:46:46.909Z,50.65
2023-09-09T21:49:13.480Z,50.93
2023-09-09T21:51:40.103Z,50.56
2023-09-09T21:54:06.840Z,51.12
2023-09-09T21:56:33.379Z,51.56
2023-09-09T21:58:59.924Z,51.98
2023-09-09T22:01:26.433Z,52.02
2023-09-09T22:03:53.306Z,52.01
2023-09-09T22:06:19.907Z,53.03
2023-09-09T22:08:46.517Z,53.78
2023-09-09T22:11:12.999Z,54.18
2023-09-09T22:13:39.780Z,54.23
2023-09-09T22:16:07.629Z,54.19
2023-09-09T22:18:34.675Z,54.17
2023-09-09T22:21:05.073Z,53.61
2023-09-09T22:23:31.689Z,53.01
2023-09-09T22:25:58.304Z,53.76
2023-09-09T22:28:24.864Z,54.04
2023-09-09T22:30:51.425Z,53.94
2023-09-09T22:33:18.032Z,54.02
2023-09-09T22:35:44.570Z,53.68
2023-09-09T22:38:12.969Z,54.56
2023-09-09T22:40:39.481Z,54.92
2023-09-09T22:43:06.007Z,54.91
2023-09-09T22:45:32.501Z,55.31
2023-09-09T22:47:59.086Z,55.41
2023-09-09T22:50:25.594Z,55.25
2023-09-09T22:52:52.141Z,55.95
2023-09-09T22:55:18.673Z,55.90
2023-09-09T22:57:45.779Z,56.19
2023-09-09T23:00:12.826Z,56.22
2023-09-09T23:02:39.446Z,56.73
2023-09-09T23:05:06.242Z,56.75
2023-09-09T23:07:45.957Z,55.92
2023-09-09T23:10:18.513Z,56.66
2023-09-09T23:12:45.045Z,56.68
2023-09-09T23:15:11.637Z,57.17
2023-09-09T23:17:38.191Z,57.87
2023-09-09T23:20:05.371Z,57.49
2023-09-09T23:22:31.979Z,58.18
2023-09-09T23:24:58.672Z,58.47
2023-09-09T23:27:25.193Z,58.65
2023-09-09T23:29:51.729Z,58.97
2023-09-09T23:32:18.369Z,58.87
2023-09-09T23:34:45.041Z,58.99
2023-09-09T23:37:11.522Z,59.44
2023-09-09T23:39:38.024Z,59.40
2023-09-09T23:42:04.691Z,59.93
2023-09-09T23:44:31.184Z,59.23
2023-09-09T23:46:57.704Z,58.65
2023-09-09T23:49:24.270Z,58.24
2023-09-09T23:51:50.973Z,58.46
2023-09-09T23:54:17.467Z,58.90
2023-09-09T23:56:43.985Z,59.03
2023-09-09T23:59:10.622Z,58.89
